createdAt,value
2018-07-17T00:00:10.508Z,13.53
2018-07-17T00:01:10.415Z,13.55
2018-07-17T00:02:10.354Z,13.63
2018-07-17T00:03:10.231Z,13.50
2018-07-17T00:04:10.138Z,13.46
2018-07-17T00:05:10.045Z,13.38
2018-07-17T00:06:09.959Z,13.29
2018-07-17T00:07:09.898Z,13.16
2018-07-17T00:08:09.774Z,13.17
2018-07-17T00:09:09.683Z,13.04
2018-07-17T00:10:09.592Z,13.03
2018-07-17T00:11:09.502Z,13.09
2018-07-17T00:12:09.412Z,13.03
2018-07-17T00:13:09.348Z,13.03
2018-07-17T00:14:09.227Z,13.16
2018-07-17T00:15:09.138Z,13.06
2018-07-17T00:16:09.045Z,13.21
2018-07-17T00:17:08.956Z,13.07
2018-07-17T00:18:08.896Z,12.96
2018-07-17T00:19:08.775Z,13.03
2018-07-17T00:20:08.678Z,12.89
2018-07-17T00:21:08.591Z,12.94
2018-07-17T00:22:08.499Z,12.89
2018-07-17T00:23:08.437Z,12.99
2018-07-17T00:24:08.317Z,13.03
2018-07-17T00:25:08.222Z,13.04
2018-07-17T00:26:08.131Z,12.91
2018-07-17T00:27:08.043Z,12.89
2018-07-17T00:28:07.979Z,12.89
2018-07-17T00:29:07.861Z,12.92
2018-07-17T00:30:07.766Z,12.88
2018-07-17T00:31:07.674Z,12.95
2018-07-17T00:32:07.590Z,12.99
2018-07-17T00:33:07.524Z,13.12
2018-07-17T00:34:07.399Z,13.21
2018-07-17T00:35:07.311Z,13.29
2018-07-17T00:36:07.218Z,13.39
2018-07-17T00:37:07.131Z,13.38
2018-07-17T00:38:07.064Z,13.32
2018-07-17T00:39:06.945Z,13.35
2018-07-17T00:40:06.853Z,13.31
2018-07-17T00:41:06.761Z,13.24
2018-07-17T00:42:06.671Z,13.16
2018-07-17T00:43:06.610Z,13.10
2018-07-17T00:44:06.490Z,13.03
2018-07-17T00:45:06.398Z,13.01
2018-07-17T00:46:06.304Z,13.04
2018-07-17T00:47:06.212Z,13.07
2018-07-17T00:48:06.154Z,13.04
2018-07-17T00:49:06.029Z,12.99
2018-07-17T00:50:05.941Z,13.14
2018-07-17T00:51:05.852Z,13.16
2018-07-17T00:52:05.760Z,13.16
2018-07-17T00:53:05.696Z,13.09
2018-07-17T00:54:05.574Z,13.06
2018-07-17T00:55:05.484Z,13.03
2018-07-17T00:56:05.390Z,13.09
2018-07-17T00:57:05.300Z,13.09
2018-07-17T00:58:05.240Z,13.04
2018-07-17T00:59:05.117Z,13.12
2018-07-17T01:00:05.033Z,13.17
2018-07-17T01:01:05.011Z,13.06
2018-07-17T01:02:04.846Z,13.03
2018-07-17T01:03:04.785Z,12.94
2018-07-17T01:04:04.662Z,12.95
2018-07-17T01:05:04.571Z,12.80
2018-07-17T01:06:04.481Z,12.85
2018-07-17T01:07:04.451Z,12.84
2018-07-17T01:08:04.326Z,12.79
2018-07-17T01:09:04.204Z,12.88
2018-07-17T01:10:04.113Z,12.89
2018-07-17T01:11:04.022Z,12.92
2018-07-17T01:12:03.933Z,13.01
2018-07-17T01:13:03.869Z,12.99
2018-07-17T01:14:03.748Z,13.03
2018-07-17T01:15:03.656Z,13.03
2018-07-17T01:16:03.568Z,13.03
2018-07-17T01:17:03.490Z,13.03
2018-07-17T01:18:03.418Z,12.98
2018-07-17T01:19:03.290Z,13.12
2018-07-17T01:20:03.202Z,13.10
2018-07-17T01:21:03.111Z,13.10
2018-07-17T01:22:03.016Z,13.07
2018-07-17T01:23:02.956Z,13.06
2018-07-17T01:24:02.835Z,12.96
2018-07-17T01:25:02.742Z,12.99
2018-07-17T01:26:02.653Z,12.94
2018-07-17T01:27:02.560Z,12.85
2018-07-17T01:28:02.498Z,12.88
2018-07-17T01:29:02.379Z,12.81
2018-07-17T01:30:02.287Z,12.66
2018-07-17T01:31:02.194Z,12.66
2018-07-17T01:32:02.103Z,12.66
2018-07-17T01:33:02.043Z,12.61
2018-07-17T01:34:01.921Z,12.67
2018-07-17T01:35:01.829Z,12.67
2018-07-17T01:36:01.738Z,12.80
2018-07-17T01:37:01.649Z,12.87
2018-07-17T01:38:01.662Z,12.91
2018-07-17T01:39:01.464Z,12.85
2018-07-17T01:40:01.372Z,12.88
2018-07-17T01:41:01.281Z,12.89
2018-07-17T01:42:01.189Z,12.91
2018-07-17T01:43:01.132Z,12.80
2018-07-17T01:44:01.038Z,12.67
2018-07-17T01:45:01.011Z,12.59
2018-07-17T01:46:00.824Z,12.55
2018-07-17T01:47:00.734Z,12.61
2018-07-17T01:48:00.661Z,12.63
2018-07-17T01:49:00.582Z,12.66
2018-07-17T01:50:00.457Z,12.71
2018-07-17T01:51:00.366Z,12.69
2018-07-17T01:52:00.366Z,12.69
2018-07-17T01:53:00.186Z,12.66
2018-07-17T01:54:00.127Z,12.80
2018-07-17T01:54:59.999Z,12.79
2018-07-17T01:55:59.909Z,12.69
2018-07-17T01:56:59.821Z,12.69
2018-07-17T01:57:59.730Z,12.71
2018-07-17T01:58:59.758Z,12.79
2018-07-17T01:59:59.544Z,12.71
2018-07-17T02:00:59.455Z,12.70
2018-07-17T02:01:59.361Z,12.84
2018-07-17T02:02:59.272Z,12.79
2018-07-17T02:03:59.206Z,12.71
2018-07-17T02:04:59.092Z,12.71
2018-07-17T02:05:59.090Z,12.66
2018-07-17T02:06:58.901Z,12.66
2018-07-17T02:07:58.808Z,12.67
2018-07-17T02:08:58.752Z,12.77
2018-07-17T02:09:58.626Z,12.79
2018-07-17T02:10:58.537Z,12.77
2018-07-17T02:11:58.443Z,12.85
2018-07-17T02:12:58.447Z,12.80
2018-07-17T02:13:58.294Z,12.81
2018-07-17T02:14:58.169Z,12.62
2018-07-17T02:15:58.078Z,12.73
2018-07-17T02:16:57.987Z,12.63
2018-07-17T02:17:57.895Z,12.80
2018-07-17T02:18:57.844Z,12.79
2018-07-17T02:19:57.807Z,12.79
2018-07-17T02:20:57.623Z,12.84
2018-07-17T02:21:57.530Z,12.79
2018-07-17T02:26:18.526Z,12.80
2018-07-17T02:27:18.031Z,12.80
2018-07-17T02:28:17.960Z,12.79
2018-07-17T02:29:17.880Z,12.70
2018-07-17T02:30:17.757Z,12.66
2018-07-17T02:31:17.663Z,12.66
2018-07-17T02:32:17.659Z,12.63
2018-07-17T02:33:17.483Z,12.63
2018-07-17T02:34:17.427Z,12.63
2018-07-17T02:35:17.297Z,12.55
2018-07-17T02:36:17.209Z,12.63
2018-07-17T02:37:17.112Z,12.71
2018-07-17T02:38:17.033Z,12.67
2018-07-17T02:39:17.067Z,12.67
2018-07-17T02:40:16.841Z,12.62
2018-07-17T02:41:16.747Z,12.66
2018-07-17T02:42:16.680Z,12.56
2018-07-17T02:43:16.565Z,12.59
2018-07-17T02:44:16.506Z,12.70
2018-07-17T02:45:16.383Z,12.71
2018-07-17T02:46:16.381Z,12.77
2018-07-17T02:47:16.196Z,12.79
2018-07-17T02:48:16.105Z,12.85
2018-07-17T02:49:16.045Z,12.94
2018-07-17T02:50:15.923Z,12.88
2018-07-17T02:51:15.832Z,12.79
2018-07-17T02:52:15.743Z,12.89
2018-07-17T02:53:15.738Z,12.66
2018-07-17T02:54:15.585Z,12.52
2018-07-17T02:55:15.464Z,12.40
2018-07-17T02:56:15.371Z,12.37
2018-07-17T02:57:15.280Z,12.37
2018-07-17T02:58:15.193Z,12.36
2018-07-17T02:59:15.151Z,12.46
2018-07-17T03:00:15.009Z,12.46
2018-07-17T03:01:14.915Z,12.58
2018-07-17T03:02:14.822Z,12.62
2018-07-17T03:03:14.734Z,12.61
2018-07-17T03:04:14.674Z,12.62
2018-07-17T03:05:14.548Z,12.55
2018-07-17T03:06:14.457Z,12.49
2018-07-17T03:07:14.364Z,12.41
2018-07-17T03:08:14.271Z,12.29
2018-07-17T03:09:14.211Z,12.16
2018-07-17T03:10:14.093Z,12.11
2018-07-17T03:11:13.998Z,12.03
2018-07-17T03:12:13.905Z,12.00
2018-07-17T03:13:13.816Z,11.94
2018-07-17T03:14:13.752Z,11.96
2018-07-17T03:15:13.632Z,11.93
2018-07-17T03:16:13.537Z,11.96
2018-07-17T03:17:13.451Z,11.93
2018-07-17T03:18:13.354Z,11.93
2018-07-17T03:19:13.297Z,11.93
2018-07-17T03:20:13.172Z,12.03
2018-07-17T03:21:13.081Z,12.05
2018-07-17T03:22:12.988Z,12.22
2018-07-17T03:23:12.898Z,12.30
2018-07-17T03:24:12.835Z,12.41
2018-07-17T03:25:12.712Z,12.54
2018-07-17T03:26:12.621Z,12.59
2018-07-17T03:27:12.530Z,12.70
2018-07-17T03:28:12.441Z,12.70
2018-07-17T03:29:12.375Z,12.70
2018-07-17T03:30:12.256Z,12.63
2018-07-17T03:31:12.165Z,12.62
2018-07-17T03:32:12.072Z,12.58
2018-07-17T03:33:11.980Z,12.51
2018-07-17T03:34:11.921Z,12.52
2018-07-17T03:35:11.795Z,12.52
2018-07-17T03:36:11.705Z,12.63
2018-07-17T03:37:11.614Z,12.67
2018-07-17T03:38:11.521Z,12.59
2018-07-17T03:39:11.458Z,12.61
2018-07-17T03:40:11.337Z,12.63
2018-07-17T03:41:11.245Z,12.54
2018-07-17T03:42:11.171Z,12.59
2018-07-17T03:43:11.063Z,12.52
2018-07-17T03:44:10.976Z,12.56
2018-07-17T03:45:10.910Z,12.61
2018-07-17T03:46:10.789Z,12.58
2018-07-17T03:47:10.696Z,12.62
2018-07-17T03:48:10.604Z,12.69
2018-07-17T03:49:10.513Z,12.73
2018-07-17T03:50:10.451Z,12.80
2018-07-17T03:51:10.327Z,12.69
2018-07-17T03:52:10.248Z,12.67
2018-07-17T03:53:10.144Z,12.61
2018-07-17T03:54:10.055Z,12.46
2018-07-17T03:55:09.993Z,12.37
2018-07-17T03:56:09.871Z,12.40
2018-07-17T03:57:09.779Z,12.37
2018-07-17T03:58:09.685Z,12.40
2018-07-17T03:59:09.601Z,12.48
2018-07-17T04:00:09.531Z,12.62
2018-07-17T04:01:09.412Z,12.51
2018-07-17T04:02:09.321Z,12.58
2018-07-17T04:03:09.229Z,12.51
2018-07-17T04:04:09.178Z,12.46
2018-07-17T04:05:09.078Z,12.43
2018-07-17T04:06:08.952Z,12.48
2018-07-17T04:07:08.861Z,12.34
2018-07-17T04:08:08.769Z,12.55
2018-07-17T04:09:08.677Z,12.70
2018-07-17T04:10:08.617Z,12.85
2018-07-17T04:11:08.494Z,12.76
2018-07-17T04:12:08.405Z,12.70
2018-07-17T04:13:08.314Z,12.70
2018-07-17T04:14:08.218Z,12.62
2018-07-17T04:15:08.160Z,12.66
2018-07-17T04:16:08.130Z,12.54
2018-07-17T04:17:07.948Z,12.56
2018-07-17T04:18:07.855Z,12.80
2018-07-17T04:19:07.761Z,12.79
2018-07-17T04:20:07.700Z,12.87
2018-07-17T04:21:07.579Z,12.87
2018-07-17T04:22:07.488Z,12.85
2018-07-17T04:23:07.412Z,12.85
2018-07-17T04:24:07.305Z,12.91
2018-07-17T04:25:07.244Z,12.89
2018-07-17T04:26:07.123Z,12.91
2018-07-17T04:27:07.037Z,12.84
2018-07-17T04:28:06.941Z,12.91
2018-07-17T04:29:06.849Z,12.89
2018-07-17T04:30:06.883Z,12.79
2018-07-17T04:31:06.671Z,12.91
2018-07-17T04:32:06.574Z,12.92
2018-07-17T04:33:06.482Z,12.94
2018-07-17T04:34:06.391Z,13.03
2018-07-17T04:35:06.330Z,13.12
2018-07-17T04:36:06.210Z,13.19
2018-07-17T04:37:06.209Z,13.29
2018-07-17T04:38:06.027Z,13.35
2018-07-17T04:39:05.935Z,13.43
2018-07-17T04:40:06.793Z,13.50
2018-07-17T04:41:05.754Z,13.50
2018-07-17T04:42:05.662Z,13.53
2018-07-17T04:43:05.573Z,13.38
2018-07-17T04:44:05.650Z,13.35
2018-07-17T04:45:05.421Z,13.43
2018-07-17T04:46:05.297Z,13.50
2018-07-17T04:47:05.208Z,13.46
2018-07-17T04:48:05.116Z,13.43
2018-07-17T04:49:05.028Z,13.51
2018-07-17T04:50:04.965Z,13.50
2018-07-17T04:51:04.938Z,13.62
2018-07-17T04:52:04.753Z,13.57
2018-07-17T04:53:04.665Z,13.83
2018-07-17T04:54:04.571Z,13.90
2018-07-17T04:55:04.511Z,13.91
2018-07-17T04:56:04.389Z,13.99
2018-07-17T04:57:04.301Z,14.04
2018-07-17T04:58:04.303Z,14.21
2018-07-17T04:59:04.121Z,14.45
2018-07-17T05:00:04.056Z,14.72
2018-07-17T05:01:03.936Z,14.75
2018-07-17T05:02:03.843Z,14.61
2018-07-17T05:03:03.755Z,14.64
2018-07-17T05:04:03.673Z,14.69
2018-07-17T05:05:03.698Z,14.64
2018-07-17T05:06:03.485Z,14.59
2018-07-17T05:07:03.397Z,14.59
2018-07-17T05:08:03.304Z,14.63
2018-07-17T05:09:03.217Z,14.61
2018-07-17T05:10:03.153Z,14.61
2018-07-17T05:11:03.035Z,14.71
2018-07-17T05:12:02.949Z,14.80
2018-07-17T05:13:02.901Z,14.78
2018-07-17T05:14:02.769Z,14.83
2018-07-17T05:15:02.678Z,14.93
2018-07-17T05:16:02.616Z,14.90
2018-07-17T05:17:02.500Z,15.01
2018-07-17T05:18:02.408Z,15.16
2018-07-17T05:19:02.318Z,15.12
2018-07-17T05:20:02.232Z,15.20
2018-07-17T05:21:02.169Z,15.23
2018-07-17T05:22:02.050Z,15.20
2018-07-17T05:23:02.009Z,15.38
2018-07-17T05:24:01.892Z,15.37
2018-07-17T05:25:01.790Z,15.40
2018-07-17T05:26:01.720Z,15.51
2018-07-17T05:27:01.603Z,15.52
2018-07-17T05:28:01.515Z,15.59
2018-07-17T05:29:01.727Z,15.58
2018-07-17T05:30:01.337Z,15.53
2018-07-17T05:31:01.278Z,15.51
2018-07-17T05:32:01.157Z,15.66
2018-07-17T05:33:01.069Z,15.67
2018-07-17T05:34:00.977Z,15.76
2018-07-17T05:35:00.912Z,15.80
2018-07-17T05:36:00.827Z,15.88
2018-07-17T05:37:00.710Z,15.95
2018-07-17T05:38:00.624Z,15.96
2018-07-17T05:39:00.530Z,16.08
2018-07-17T05:40:00.444Z,16.17
2018-07-17T05:41:00.389Z,16.27
2018-07-17T05:42:00.267Z,16.44
2018-07-17T05:43:00.177Z,16.45
2018-07-17T05:44:00.090Z,16.50
2018-07-17T05:44:59.996Z,16.59
2018-07-17T05:45:59.938Z,16.69
2018-07-17T05:46:59.819Z,16.65
2018-07-17T05:47:59.732Z,16.75
2018-07-17T05:48:59.647Z,16.73
2018-07-17T05:49:59.555Z,16.85
2018-07-17T05:50:59.502Z,16.87
2018-07-17T05:51:59.436Z,16.92
2018-07-17T05:52:59.289Z,16.92
2018-07-17T05:53:59.199Z,16.92
2018-07-17T05:54:59.114Z,16.95
2018-07-17T05:55:59.056Z,17.02
2018-07-17T05:56:58.937Z,17.07
2018-07-17T05:57:58.845Z,17.10
2018-07-17T05:58:58.757Z,17.17
2018-07-17T05:59:58.671Z,17.17
2018-07-17T06:00:58.623Z,17.21
2018-07-17T06:01:58.498Z,17.20
2018-07-17T06:02:58.420Z,17.24
2018-07-17T06:03:58.320Z,17.30
2018-07-17T06:04:58.232Z,17.38
2018-07-17T06:05:58.175Z,17.47
2018-07-17T06:06:58.053Z,17.46
2018-07-17T06:07:57.967Z,17.46
2018-07-17T06:08:57.877Z,17.46
2018-07-17T06:09:57.791Z,17.45
2018-07-17T06:10:57.732Z,17.55
2018-07-17T06:11:57.615Z,17.66
2018-07-17T06:12:57.526Z,17.58
2018-07-17T06:13:57.439Z,17.71
2018-07-17T06:14:57.353Z,17.66
2018-07-17T06:15:57.294Z,17.76
2018-07-17T06:16:57.176Z,17.91
2018-07-17T06:17:57.089Z,17.95
2018-07-17T06:18:57.022Z,18.05
2018-07-17T06:19:56.925Z,18.01
2018-07-17T06:20:56.856Z,18.05
2018-07-17T06:21:56.786Z,18.07
2018-07-17T06:22:56.652Z,18.09
2018-07-17T06:23:56.564Z,18.16
2018-07-17T06:24:56.479Z,18.14
2018-07-17T06:25:56.416Z,18.20
2018-07-17T06:26:56.309Z,18.17
2018-07-17T06:27:56.218Z,18.23
2018-07-17T06:28:56.129Z,18.26
2018-07-17T06:29:56.039Z,18.26
2018-07-17T06:30:55.982Z,18.31
2018-07-17T06:31:55.863Z,18.29
2018-07-17T06:32:55.795Z,18.36
2018-07-17T06:33:55.688Z,18.42
2018-07-17T06:34:55.602Z,18.39
2018-07-17T06:35:55.544Z,18.44
2018-07-17T06:36:55.430Z,18.53
2018-07-17T06:37:55.342Z,18.51
2018-07-17T06:38:55.321Z,18.68
2018-07-17T06:39:55.168Z,18.65
2018-07-17T06:40:55.117Z,18.74
2018-07-17T06:41:54.995Z,18.91
2018-07-17T06:42:54.905Z,19.10
2018-07-17T06:43:54.817Z,19.31
2018-07-17T06:44:54.733Z,19.45
2018-07-17T06:45:54.649Z,19.75
2018-07-17T06:46:54.586Z,20.01
2018-07-17T06:47:54.471Z,20.04
2018-07-17T06:48:54.385Z,20.41
2018-07-17T06:49:54.295Z,20.41
2018-07-17T06:50:54.334Z,20.71
2018-07-17T06:51:54.130Z,21.00
2018-07-17T06:52:54.039Z,21.37
2018-07-17T06:53:53.952Z,21.46
2018-07-17T06:54:53.868Z,21.67
2018-07-17T06:55:53.784Z,21.83
2018-07-17T06:56:53.727Z,21.89
2018-07-17T06:57:53.611Z,22.01
2018-07-17T06:58:53.528Z,22.04
2018-07-17T06:59:53.440Z,22.33
2018-07-17T07:00:53.358Z,22.31
2018-07-17T07:01:53.300Z,22.31
2018-07-17T07:02:53.189Z,22.39
2018-07-17T07:03:53.204Z,22.69
2018-07-17T07:04:53.023Z,22.76
2018-07-17T07:05:52.980Z,23.00
2018-07-17T07:06:52.881Z,22.88
2018-07-17T07:07:52.771Z,22.99
2018-07-17T07:08:52.685Z,23.11
2018-07-17T07:09:52.601Z,23.23
2018-07-17T07:10:52.523Z,23.34
2018-07-17T07:11:52.468Z,23.42
2018-07-17T07:12:52.360Z,23.49
2018-07-17T07:13:52.271Z,23.49
2018-07-17T07:14:52.190Z,23.50
2018-07-17T07:15:52.108Z,23.63
2018-07-17T07:16:52.055Z,23.67
2018-07-17T07:17:52.034Z,23.69
2018-07-17T07:18:51.862Z,23.60
2018-07-17T07:19:51.781Z,23.62
2018-07-17T07:20:51.701Z,23.82
2018-07-17T07:21:51.651Z,23.87
2018-07-17T07:22:51.537Z,23.86
2018-07-17T07:23:51.459Z,23.84
2018-07-17T07:24:51.486Z,23.99
2018-07-17T07:25:51.294Z,24.21
2018-07-17T07:26:51.244Z,24.09
2018-07-17T07:27:51.133Z,24.24
2018-07-17T07:28:51.053Z,24.49
2018-07-17T07:29:50.970Z,24.68
2018-07-17T07:30:50.898Z,24.84
2018-07-17T07:31:50.935Z,24.82
2018-07-17T07:32:50.732Z,24.71
2018-07-17T07:33:50.655Z,24.74
2018-07-17T07:34:50.573Z,24.83
2018-07-17T07:35:50.492Z,24.90
2018-07-17T07:36:50.441Z,24.71
2018-07-17T07:37:50.332Z,24.92
2018-07-17T07:38:50.356Z,25.09
2018-07-17T07:39:50.174Z,25.08
2018-07-17T07:40:50.096Z,25.04
2018-07-17T07:41:50.045Z,25.12
2018-07-17T07:42:50.016Z,25.02
2018-07-17T07:43:49.856Z,25.26
2018-07-17T07:44:49.776Z,25.12
2018-07-17T07:45:49.793Z,25.12
2018-07-17T07:46:49.649Z,25.27
2018-07-17T07:47:49.542Z,25.24
2018-07-17T07:48:49.461Z,25.44
2018-07-17T07:49:49.382Z,25.39
2018-07-17T07:50:49.304Z,25.59
2018-07-17T07:51:49.252Z,25.57
2018-07-17T07:52:49.238Z,25.67
2018-07-17T07:53:49.065Z,25.86
2018-07-17T07:54:48.989Z,26.09
2018-07-17T07:55:48.909Z,26.16
2018-07-17T07:56:48.862Z,26.35
2018-07-17T07:57:48.753Z,26.35
2018-07-17T07:58:48.675Z,26.69
2018-07-17T07:59:48.691Z,26.88
2018-07-17T08:00:48.518Z,26.56
2018-07-17T08:01:48.475Z,26.79
2018-07-17T08:02:48.358Z,26.76
2018-07-17T08:03:48.296Z,26.71
2018-07-17T08:04:48.215Z,26.75
2018-07-17T08:05:48.125Z,26.71
2018-07-17T08:06:48.174Z,26.81
2018-07-17T08:07:47.970Z,27.02
2018-07-17T08:08:47.895Z,27.20
2018-07-17T08:09:47.811Z,27.03
2018-07-17T08:10:47.735Z,27.11
2018-07-17T08:11:47.718Z,27.05
2018-07-17T08:12:47.715Z,27.12
2018-07-17T08:13:47.497Z,27.45
2018-07-17T08:14:47.424Z,27.42
2018-07-17T08:15:47.350Z,27.33
2018-07-17T08:16:47.269Z,27.20
2018-07-17T08:17:47.216Z,27.20
2018-07-17T08:18:47.118Z,27.05
2018-07-17T08:19:47.030Z,27.12
2018-07-17T08:20:46.954Z,27.15
2018-07-17T08:21:46.877Z,27.30
2018-07-17T08:22:46.831Z,27.11
2018-07-17T08:23:46.720Z,26.98
2018-07-17T08:24:46.646Z,27.03
2018-07-17T08:25:46.563Z,27.08
2018-07-17T08:26:46.489Z,27.11
2018-07-17T08:27:46.448Z,27.15
2018-07-17T08:28:46.342Z,27.38
2018-07-17T08:29:46.286Z,27.78
2018-07-17T08:30:46.187Z,28.05
2018-07-17T08:31:46.097Z,27.55
2018-07-17T08:32:46.051Z,27.20
2018-07-17T08:33:45.943Z,27.05
2018-07-17T08:34:45.863Z,27.08
2018-07-17T08:35:45.845Z,27.15
2018-07-17T08:36:45.713Z,27.15
2018-07-17T08:37:45.662Z,27.38
2018-07-17T08:38:45.553Z,27.74
2018-07-17T08:39:45.475Z,27.86
2018-07-17T08:40:45.397Z,28.21
2018-07-17T08:41:45.317Z,28.35
2018-07-17T08:42:45.274Z,28.28
2018-07-17T08:43:45.257Z,27.77
2018-07-17T08:44:45.086Z,27.52
2018-07-17T08:45:45.006Z,27.30
2018-07-17T08:46:44.935Z,27.39
2018-07-17T08:47:44.881Z,27.71
2018-07-17T08:48:44.772Z,27.62
2018-07-17T08:49:44.692Z,27.69
2018-07-17T08:50:44.616Z,27.99
2018-07-17T08:51:44.539Z,27.76
2018-07-17T08:52:44.489Z,27.69
2018-07-17T08:53:44.382Z,27.59
2018-07-17T08:54:44.333Z,27.18
2018-07-17T08:55:44.226Z,27.66
2018-07-17T08:56:44.148Z,27.86
2018-07-17T08:57:44.096Z,27.91
2018-07-17T08:58:43.992Z,27.53
2018-07-17T08:59:43.913Z,27.31
2018-07-17T09:00:43.833Z,27.68
2018-07-17T09:01:43.758Z,27.87
2018-07-17T09:02:43.709Z,28.02
2018-07-17T09:03:43.599Z,28.13
2018-07-17T09:04:43.521Z,28.28
2018-07-17T09:05:43.446Z,27.99
2018-07-17T09:06:43.367Z,27.52
2018-07-17T09:07:43.320Z,28.13
2018-07-17T09:08:43.210Z,28.42
2018-07-17T09:09:43.131Z,28.57
2018-07-17T09:10:43.054Z,28.74
2018-07-17T09:11:42.973Z,28.72
2018-07-17T09:12:42.925Z,29.05
2018-07-17T09:13:42.819Z,29.25
2018-07-17T09:14:42.739Z,29.49
2018-07-17T09:15:42.761Z,29.66
2018-07-17T09:16:42.584Z,29.73
2018-07-17T09:17:42.534Z,29.78
2018-07-17T09:18:42.428Z,29.37
2018-07-17T09:19:42.352Z,29.21
2018-07-17T09:20:42.273Z,29.12
2018-07-17T09:21:42.192Z,28.51
2018-07-17T09:22:42.146Z,28.39
2018-07-17T09:23:42.039Z,28.51
2018-07-17T09:24:41.963Z,28.62
2018-07-17T09:25:41.882Z,29.18
2018-07-17T09:26:41.805Z,29.41
2018-07-17T09:27:41.761Z,29.69
2018-07-17T09:28:41.651Z,30.00
2018-07-17T09:29:41.664Z,29.92
2018-07-17T09:30:41.496Z,30.03
2018-07-17T09:31:41.418Z,29.73
2018-07-17T09:32:41.402Z,29.57
2018-07-17T09:33:49.037Z,29.63
2018-07-17T09:34:41.464Z,29.33
2018-07-17T09:35:41.108Z,29.47
2018-07-17T09:36:41.032Z,29.20
2018-07-17T09:37:40.984Z,29.26
2018-07-17T09:38:40.875Z,29.18
2018-07-17T09:39:40.799Z,29.15
2018-07-17T09:40:40.720Z,29.25
2018-07-17T09:41:40.789Z,29.41
2018-07-17T09:42:40.603Z,29.45
2018-07-17T09:43:40.493Z,29.47
2018-07-17T09:44:40.411Z,29.08
2018-07-17T09:45:40.334Z,29.74
2018-07-17T09:46:40.258Z,29.62
2018-07-17T09:47:40.182Z,30.01
2018-07-17T09:48:40.133Z,30.19
2018-07-17T09:49:40.029Z,30.11
2018-07-17T09:50:39.949Z,29.74
2018-07-17T09:51:39.872Z,29.41
2018-07-17T09:52:39.795Z,29.17
2018-07-17T09:53:39.747Z,29.11
2018-07-17T09:54:39.640Z,29.14
2018-07-17T09:55:39.561Z,29.62
2018-07-17T09:56:47.082Z,29.45
2018-07-17T09:57:39.789Z,29.44
2018-07-17T09:58:39.364Z,29.60
2018-07-17T09:59:39.253Z,29.88
2018-07-17T10:00:39.176Z,30.22
2018-07-17T10:01:39.101Z,30.15
2018-07-17T10:02:39.022Z,30.46
2018-07-17T10:03:38.973Z,30.37
2018-07-17T10:04:38.910Z,30.42
2018-07-17T10:05:38.796Z,30.72
2018-07-17T10:06:38.715Z,29.86
2018-07-17T10:07:38.636Z,29.51
2018-07-17T10:08:38.590Z,28.82
2018-07-17T10:09:38.558Z,28.39
2018-07-17T10:10:38.405Z,28.02
2018-07-17T10:11:38.328Z,28.11
2018-07-17T10:12:38.254Z,28.38
2018-07-17T10:13:38.207Z,28.88
2018-07-17T10:14:38.186Z,29.03
2018-07-17T10:15:38.021Z,29.20
2018-07-17T10:16:37.944Z,29.21
2018-07-17T10:17:37.865Z,29.35
2018-07-17T10:18:37.833Z,29.74
2018-07-17T10:19:37.712Z,29.92
2018-07-17T10:20:37.633Z,30.10
2018-07-17T10:21:37.558Z,30.46
2018-07-17T10:22:37.479Z,30.60
2018-07-17T10:23:37.432Z,30.66
2018-07-17T10:24:37.324Z,30.63
2018-07-17T10:25:37.244Z,30.07
2018-07-17T10:26:37.216Z,30.23
2018-07-17T10:27:37.100Z,29.63
2018-07-17T10:28:37.047Z,29.12
2018-07-17T10:29:36.938Z,29.37
2018-07-17T10:30:36.864Z,29.73
2018-07-17T10:31:36.786Z,29.94
2018-07-17T10:32:36.708Z,30.45
2018-07-17T10:33:36.658Z,30.54
2018-07-17T10:34:36.551Z,30.91
2018-07-17T10:35:36.476Z,31.16
2018-07-17T10:36:36.397Z,31.03
2018-07-17T10:37:36.322Z,31.31
2018-07-17T10:38:36.323Z,31.12
2018-07-17T10:39:36.167Z,31.09
2018-07-17T10:40:36.089Z,30.86
2018-07-17T10:41:36.014Z,30.72
2018-07-17T10:42:35.937Z,30.66
2018-07-17T10:43:35.978Z,30.78
2018-07-17T10:44:35.781Z,30.85
2018-07-17T10:45:35.707Z,30.66
2018-07-17T10:46:35.628Z,31.01
2018-07-17T10:47:35.606Z,31.31
2018-07-17T10:48:35.506Z,31.12
2018-07-17T10:49:35.407Z,30.90
2018-07-17T10:50:35.423Z,30.64
2018-07-17T10:51:35.246Z,31.01
2018-07-17T10:52:35.172Z,30.96
2018-07-17T10:53:35.123Z,31.38
2018-07-17T10:54:35.019Z,31.07
2018-07-17T10:55:34.941Z,30.82
2018-07-17T10:56:34.866Z,30.40
2018-07-17T10:57:34.882Z,29.79
2018-07-17T10:58:34.742Z,30.19
2018-07-17T10:59:34.639Z,29.94
2018-07-17T11:00:34.566Z,29.21
2018-07-17T11:01:34.486Z,29.12
2018-07-17T11:02:34.406Z,29.44
2018-07-17T11:03:34.379Z,29.32
2018-07-17T11:04:34.344Z,30.00
2018-07-17T11:05:34.180Z,30.26
2018-07-17T11:06:34.099Z,29.88
2018-07-17T11:07:34.021Z,29.99
2018-07-17T11:08:34.057Z,30.22
2018-07-17T11:09:33.868Z,30.61
2018-07-17T11:10:33.792Z,31.10
2018-07-17T11:11:33.806Z,31.41
2018-07-17T11:12:33.637Z,31.30
2018-07-17T11:13:33.589Z,31.13
2018-07-17T11:14:33.481Z,31.42
2018-07-17T11:15:33.406Z,30.79
2018-07-17T11:16:33.330Z,30.67
2018-07-17T11:17:33.252Z,30.56
2018-07-17T11:18:33.269Z,30.28
2018-07-17T11:19:33.128Z,30.38
2018-07-17T11:20:33.022Z,30.46
2018-07-17T11:21:32.945Z,30.70
2018-07-17T11:22:32.869Z,30.66
2018-07-17T11:23:32.796Z,30.72
2018-07-17T11:24:32.746Z,30.67
2018-07-17T11:25:32.750Z,30.88
2018-07-17T11:26:32.565Z,31.00
2018-07-17T11:27:32.486Z,31.12
2018-07-17T11:28:32.418Z,31.04
2018-07-17T11:29:32.365Z,30.98
2018-07-17T11:30:32.258Z,30.91
2018-07-17T11:31:32.181Z,30.86
2018-07-17T11:32:32.198Z,30.73
2018-07-17T11:33:32.035Z,30.88
2018-07-17T11:34:31.983Z,30.67
2018-07-17T11:35:31.882Z,30.49
2018-07-17T11:36:31.800Z,30.64
2018-07-17T11:37:31.726Z,29.95
2018-07-17T11:38:31.657Z,29.44
2018-07-17T11:39:31.601Z,29.45
2018-07-17T11:40:31.494Z,29.10
2018-07-17T11:41:31.425Z,28.85
2018-07-17T11:42:31.343Z,28.97
2018-07-17T11:43:31.267Z,29.54
2018-07-17T11:44:31.221Z,29.79
2018-07-17T11:45:31.111Z,29.76
2018-07-17T11:46:31.036Z,29.36
2018-07-17T11:47:30.957Z,29.30
2018-07-17T11:48:30.883Z,29.70
2018-07-17T11:49:30.832Z,29.81
2018-07-17T11:50:30.729Z,30.11
2018-07-17T11:51:30.650Z,30.23
2018-07-17T11:52:30.573Z,30.66
2018-07-17T11:53:30.498Z,30.94
2018-07-17T11:54:30.444Z,31.13
2018-07-17T11:55:30.339Z,31.52
2018-07-17T11:56:30.266Z,31.41
2018-07-17T11:57:30.193Z,31.30
2018-07-17T11:58:30.113Z,31.19
2018-07-17T11:59:30.292Z,31.41
2018-07-17T12:00:29.957Z,31.31
2018-07-17T12:01:29.881Z,31.37
2018-07-17T12:02:29.805Z,31.40
2018-07-17T12:03:29.727Z,31.76
2018-07-17T12:04:29.680Z,31.84
2018-07-17T12:05:29.631Z,31.92
2018-07-17T12:06:29.497Z,32.06
2018-07-17T12:07:29.421Z,32.09
2018-07-17T12:08:29.343Z,31.68
2018-07-17T12:09:29.302Z,31.71
2018-07-17T12:10:29.192Z,31.52
2018-07-17T12:11:29.117Z,31.82
2018-07-17T12:12:29.039Z,31.97
2018-07-17T12:13:28.964Z,31.98
2018-07-17T12:14:28.919Z,31.49
2018-07-17T12:15:28.810Z,31.79
2018-07-17T12:16:28.736Z,30.81
2018-07-17T12:17:28.673Z,30.46
2018-07-17T12:18:28.585Z,30.67
2018-07-17T12:19:28.540Z,30.94
2018-07-17T12:20:28.546Z,30.60
2018-07-17T12:21:28.360Z,30.48
2018-07-17T12:22:28.285Z,30.67
2018-07-17T12:23:28.205Z,30.81
2018-07-17T12:24:28.160Z,30.38
2018-07-17T12:25:28.055Z,29.76
2018-07-17T12:26:27.976Z,30.06
2018-07-17T12:27:27.901Z,30.10
2018-07-17T12:28:27.827Z,30.30
2018-07-17T12:29:27.778Z,30.66
2018-07-17T12:30:27.671Z,30.83
2018-07-17T12:31:27.597Z,30.93
2018-07-17T12:32:27.521Z,31.10
2018-07-17T12:33:27.443Z,31.07
2018-07-17T12:34:27.394Z,31.23
2018-07-17T12:35:27.290Z,31.04
2018-07-17T12:36:27.214Z,31.04
2018-07-17T12:37:27.140Z,31.00
2018-07-17T12:38:27.085Z,30.82
2018-07-17T12:39:27.019Z,30.98
2018-07-17T12:40:26.908Z,31.09
2018-07-17T12:41:26.834Z,31.05
2018-07-17T12:42:26.757Z,31.22
2018-07-17T12:43:26.682Z,31.13
2018-07-17T12:44:26.653Z,30.85
2018-07-17T12:45:26.531Z,30.90
2018-07-17T12:46:26.452Z,30.94
2018-07-17T12:47:26.377Z,30.63
2018-07-17T12:48:26.301Z,30.67
2018-07-17T12:49:26.255Z,30.30
2018-07-17T12:50:26.147Z,30.15
2018-07-17T12:51:26.074Z,30.21
2018-07-17T12:52:25.996Z,30.18
2018-07-17T12:53:25.922Z,29.74
2018-07-17T12:54:25.845Z,29.57